sensor_id;sensor_type;location;lat;lon;timestamp;P1;durP1;ratioP1;P2;durP2;ratioP2
73599;SDS011;61877;48.246;9.220;2023-05-07T00:02:02;7.80;;;4.00;;
73599;SDS011;61877;48.246;9.220;2023-05-07T00:04:27;8.00;;;3.80;;
73599;SDS011;61877;48.246;9.220;2023-05-07T00:06:52;10.43;;;4.33;;
73599;SDS011;61877;48.246;9.220;2023-05-07T00:09:18;9.03;;;4.23;;
73599;SDS011;61877;48.246;9.220;2023-05-07T00:11:46;9.93;;;4.70;;
73599;SDS011;61877;48.246;9.220;2023-05-07T00:14:11;13.43;;;4.20;;
73599;SDS011;61877;48.246;9.220;2023-05-07T00:16:37;8.10;;;4.10;;
73599;SDS011;61877;48.246;9.220;2023-05-07T00:19:04;10.43;;;4.50;;
73599;SDS011;61877;48.246;9.220;2023-05-07T00:21:29;8.35;;;4.47;;
73599;SDS011;61877;48.246;9.220;2023-05-07T00:23:55;9.43;;;4.20;;
73599;SDS011;61877;48.246;9.220;2023-05-07T00:26:20;10.27;;;4.17;;
73599;SDS011;61877;48.246;9.220;2023-05-07T00:28:45;8.33;;;4.53;;
73599;SDS011;61877;48.246;9.220;2023-05-07T00:31:11;8.47;;;4.10;;
73599;SDS011;61877;48.246;9.220;2023-05-07T00:33:36;9.77;;;4.20;;
73599;SDS011;61877;48.246;9.220;2023-05-07T00:36:04;7.70;;;3.90;;
73599;SDS011;61877;48.246;9.220;2023-05-07T00:38:29;8.68;;;4.10;;
73599;SDS011;61877;48.246;9.220;2023-05-07T00:40:56;8.80;;;4.10;;
73599;SDS011;61877;48.246;9.220;2023-05-07T00:43:21;8.93;;;4.00;;
73599;SDS011;61877;48.246;9.220;2023-05-07T00:45:46;9.70;;;4.10;;
73599;SDS011;61877;48.246;9.220;2023-05-07T00:48:13;8.68;;;4.18;;
73599;SDS011;61877;48.246;9.220;2023-05-07T00:50:38;8.98;;;4.28;;
73599;SDS011;61877;48.246;9.220;2023-05-07T00:53:05;8.70;;;3.93;;
73599;SDS011;61877;48.246;9.220;2023-05-07T00:55:32;8.60;;;4.28;;
73599;SDS011;61877;48.246;9.220;2023-05-07T00:57:57;8.63;;;4.40;;
73599;SDS011;61877;48.246;9.220;2023-05-07T01:00:23;7.73;;;4.00;;
73599;SDS011;61877;48.246;9.220;2023-05-07T01:02:48;9.33;;;3.90;;
73599;SDS011;61877;48.246;9.220;2023-05-07T01:05:14;9.43;;;4.40;;
73599;SDS011;61877;48.246;9.220;2023-05-07T01:07:42;9.70;;;4.50;;
73599;SDS011;61877;48.246;9.220;2023-05-07T01:10:10;9.18;;;4.43;;
73599;SDS011;61877;48.246;9.220;2023-05-07T01:12:37;9.55;;;3.92;;
73599;SDS011;61877;48.246;9.220;2023-05-07T01:15:03;8.80;;;4.10;;
73599;SDS011;61877;48.246;9.220;2023-05-07T01:17:32;7.80;;;4.17;;
73599;SDS011;61877;48.246;9.220;2023-05-07T01:20:00;9.38;;;4.00;;
73599;SDS011;61877;48.246;9.220;2023-05-07T01:22:31;10.45;;;4.13;;
73599;SDS011;61877;48.246;9.220;2023-05-07T01:24:57;7.65;;;3.72;;
73599;SDS011;61877;48.246;9.220;2023-05-07T01:27:23;9.97;;;4.00;;
73599;SDS011;61877;48.246;9.220;2023-05-07T01:29:48;8.13;;;4.10;;
73599;SDS011;61877;48.246;9.220;2023-05-07T01:32:14;9.50;;;4.03;;
73599;SDS011;61877;48.246;9.220;2023-05-07T01:34:43;8.03;;;4.10;;
73599;SDS011;61877;48.246;9.220;2023-05-07T01:37:12;8.90;;;4.18;;
73599;SDS011;61877;48.246;9.220;2023-05-07T01:39:39;9.50;;;4.22;;
73599;SDS011;61877;48.246;9.220;2023-05-07T01:42:05;7.95;;;4.15;;
73599;SDS011;61877;48.246;9.220;2023-05-07T01:44:34;8.90;;;4.00;;
73599;SDS011;61877;48.246;9.220;2023-05-07T01:46:59;8.23;;;3.60;;
73599;SDS011;61877;48.246;9.220;2023-05-07T01:49:27;8.52;;;3.60;;
73599;SDS011;61877;48.246;9.220;2023-05-07T01:51:52;9.03;;;3.63;;
73599;SDS011;61877;48.246;9.220;2023-05-07T01:54:18;7.73;;;3.67;;
73599;SDS011;61877;48.246;9.220;2023-05-07T01:56:44;8.37;;;4.00;;
73599;SDS011;61877;48.246;9.220;2023-05-07T01:59:10;8.25;;;4.30;;
73599;SDS011;61877;48.246;9.220;2023-05-07T02:01:35;11.10;;;4.57;;
73599;SDS011;61877;48.246;9.220;2023-05-07T02:04:03;8.37;;;4.00;;
73599;SDS011;61877;48.246;9.220;2023-05-07T02:06:29;7.75;;;3.90;;
73599;SDS011;61877;48.246;9.220;2023-05-07T02:08:54;9.33;;;4.13;;
73599;SDS011;61877;48.246;9.220;2023-05-07T02:11:23;8.17;;;3.77;;
73599;SDS011;61877;48.246;9.220;2023-05-07T02:13:52;7.88;;;3.95;;
73599;SDS011;61877;48.246;9.220;2023-05-07T02:16:19;8.55;;;3.92;;
73599;SDS011;61877;48.246;9.220;2023-05-07T02:18:45;7.80;;;3.60;;
73599;SDS011;61877;48.246;9.220;2023-05-07T02:21:10;7.80;;;3.80;;
73599;SDS011;61877;48.246;9.220;2023-05-07T02:23:35;8.63;;;3.80;;
73599;SDS011;61877;48.246;9.220;2023-05-07T02:26:03;7.40;;;3.60;;
73599;SDS011;61877;48.246;9.220;2023-05-07T02:28:32;8.30;;;3.67;;
73599;SDS011;61877;48.246;9.220;2023-05-07T02:31:01;7.80;;;3.72;;
73599;SDS011;61877;48.246;9.220;2023-05-07T02:33:27;7.97;;;4.07;;
73599;SDS011;61877;48.246;9.220;2023-05-07T02:35:55;7.80;;;3.80;;
73599;SDS011;61877;48.246;9.220;2023-05-07T02:38:20;7.95;;;3.92;;
73599;SDS011;61877;48.246;9.220;2023-05-07T02:40:48;9.03;;;3.73;;
73599;SDS011;61877;48.246;9.220;2023-05-07T02:43:15;8.18;;;3.50;;
73599;SDS011;61877;48.246;9.220;2023-05-07T02:45:41;8.17;;;3.60;;
73599;SDS011;61877;48.246;9.220;2023-05-07T02:48:07;8.50;;;3.95;;
73599;SDS011;61877;48.246;9.220;2023-05-07T02:50:33;8.67;;;3.40;;
73599;SDS011;61877;48.246;9.220;2023-05-07T02:52:58;7.88;;;3.53;;
73599;SDS011;61877;48.246;9.220;2023-05-07T02:55:23;7.97;;;3.47;;
73599;SDS011;61877;48.246;9.220;2023-05-07T02:57:54;8.10;;;4.03;;
73599;SDS011;61877;48.246;9.220;2023-05-07T03:00:20;9.25;;;3.90;;
73599;SDS011;61877;48.246;9.220;2023-05-07T03:02:48;9.70;;;4.40;;
73599;SDS011;61877;48.246;9.220;2023-05-07T03:05:15;10.20;;;4.57;;
73599;SDS011;61877;48.246;9.220;2023-05-07T03:07:42;9.47;;;4.10;;
73599;SDS011;61877;48.246;9.220;2023-05-07T03:10:08;7.95;;;4.07;;
73599;SDS011;61877;48.246;9.220;2023-05-07T03:12:34;7.85;;;3.80;;
73599;SDS011;61877;48.246;9.220;2023-05-07T03:14:59;8.10;;;3.73;;
73599;SDS011;61877;48.246;9.220;2023-05-07T03:17:25;8.27;;;3.67;;
73599;SDS011;61877;48.246;9.220;2023-05-07T03:19:50;8.77;;;3.70;;
73599;SDS011;61877;48.246;9.220;2023-05-07T03:22:17;7.50;;;3.50;;
73599;SDS011;61877;48.246;9.220;2023-05-07T03:24:42;10.40;;;3.70;;
73599;SDS011;61877;48.246;9.220;2023-05-07T03:27:07;8.40;;;3.90;;
73599;SDS011;61877;48.246;9.220;2023-05-07T03:29:38;8.15;;;3.92;;
73599;SDS011;61877;48.246;9.220;2023-05-07T03:32:04;9.70;;;3.60;;
73599;SDS011;61877;48.246;9.220;2023-05-07T03:34:31;7.25;;;3.38;;
73599;SDS011;61877;48.246;9.220;2023-05-07T03:36:57;8.68;;;3.90;;
73599;SDS011;61877;48.246;9.220;2023-05-07T03:39:26;9.50;;;3.60;;
73599;SDS011;61877;48.246;9.220;2023-05-07T03:41:52;7.93;;;3.97;;
73599;SDS011;61877;48.246;9.220;2023-05-07T03:44:17;8.77;;;3.70;;
73599;SDS011;61877;48.246;9.220;2023-05-07T03:46:48;7.97;;;3.60;;
73599;SDS011;61877;48.246;9.220;2023-05-07T03:49:17;9.07;;;3.92;;
73599;SDS011;61877;48.246;9.220;2023-05-07T03:51:54;8.77;;;3.53;;
73599;SDS011;61877;48.246;9.220;2023-05-07T03:54:22;8.27;;;3.70;;
73599;SDS011;61877;48.246;9.220;2023-05-07T03:56:53;8.60;;;3.60;;
73599;SDS011;61877;48.246;9.220;2023-05-07T03:59:18;9.15;;;3.30;;
73599;SDS011;61877;48.246;9.220;2023-05-07T04:01:48;9.33;;;3.77;;
73599;SDS011;61877;48.246;9.220;2023-05-07T04:04:14;8.20;;;3.80;;
73599;SDS011;61877;48.246;9.220;2023-05-07T04:06:43;8.47;;;3.77;;
73599;SDS011;61877;48.246;9.220;2023-05-07T04:09:08;8.07;;;3.83;;
73599;SDS011;61877;48.246;9.220;2023-05-07T04:11:36;8.85;;;4.10;;
73599;SDS011;61877;48.246;9.220;2023-05-07T04:14:05;7.63;;;3.80;;
73599;SDS011;61877;48.246;9.220;2023-05-07T04:16:36;8.77;;;3.90;;
73599;SDS011;61877;48.246;9.220;2023-05-07T04:19:02;7.63;;;3.67;;
73599;SDS011;61877;48.246;9.220;2023-05-07T04:21:33;8.57;;;3.50;;
73599;SDS011;61877;48.246;9.220;2023-05-07T04:23:58;8.30;;;4.05;;
73599;SDS011;61877;48.246;9.220;2023-05-07T04:26:24;8.90;;;4.20;;
73599;SDS011;61877;48.246;9.220;2023-05-07T04:28:49;9.20;;;4.85;;
73599;SDS011;61877;48.246;9.220;2023-05-07T04:31:16;7.87;;;3.70;;
73599;SDS011;61877;48.246;9.220;2023-05-07T04:33:52;9.05;;;3.72;;
73599;SDS011;61877;48.246;9.220;2023-05-07T04:36:17;7.95;;;3.92;;
73599;SDS011;61877;48.246;9.220;2023-05-07T04:38:43;10.63;;;3.97;;
73599;SDS011;61877;48.246;9.220;2023-05-07T04:41:17;9.13;;;4.17;;
73599;SDS011;61877;48.246;9.220;2023-05-07T04:43:48;8.77;;;4.13;;
73599;SDS011;61877;48.246;9.220;2023-05-07T04:46:23;8.95;;;4.22;;
73599;SDS011;61877;48.246;9.220;2023-05-07T04:48:51;8.82;;;4.15;;
73599;SDS011;61877;48.246;9.220;2023-05-07T04:51:17;8.18;;;4.07;;
73599;SDS011;61877;48.246;9.220;2023-05-07T04:53:42;8.37;;;3.90;;
73599;SDS011;61877;48.246;9.220;2023-05-07T04:56:09;8.13;;;3.57;;
73599;SDS011;61877;48.246;9.220;2023-05-07T04:58:46;8.20;;;3.90;;
73599;SDS011;61877;48.246;9.220;2023-05-07T05:01:14;8.43;;;4.05;;
73599;SDS011;61877;48.246;9.220;2023-05-07T05:03:42;7.40;;;3.67;;
73599;SDS011;61877;48.246;9.220;2023-05-07T05:06:08;9.45;;;3.97;;
73599;SDS011;61877;48.246;9.220;2023-05-07T05:08:33;10.00;;;4.30;;
73599;SDS011;61877;48.246;9.220;2023-05-07T05:11:00;9.43;;;4.20;;
73599;SDS011;61877;48.246;9.220;2023-05-07T05:13:31;8.57;;;4.10;;
73599;SDS011;61877;48.246;9.220;2023-05-07T05:15:57;8.07;;;4.30;;
73599;SDS011;61877;48.246;9.220;2023-05-07T05:18:25;10.30;;;4.87;;
73599;SDS011;61877;48.246;9.220;2023-05-07T05:21:02;9.50;;;5.07;;
73599;SDS011;61877;48.246;9.220;2023-05-07T05:23:27;9.38;;;4.95;;
73599;SDS011;61877;48.246;9.220;2023-05-07T05:25:56;9.80;;;4.03;;
73599;SDS011;61877;48.246;9.220;2023-05-07T05:28:24;8.25;;;4.20;;
73599;SDS011;61877;48.246;9.220;2023-05-07T05:30:53;11.27;;;5.32;;
73599;SDS011;61877;48.246;9.220;2023-05-07T05:33:27;9.73;;;4.87;;
73599;SDS011;61877;48.246;9.220;2023-05-07T05:35:54;8.70;;;4.22;;
73599;SDS011;61877;48.246;9.220;2023-05-07T05:38:20;9.23;;;4.28;;
73599;SDS011;61877;48.246;9.220;2023-05-07T05:40:51;10.23;;;4.37;;
73599;SDS011;61877;48.246;9.220;2023-05-07T05:43:19;8.50;;;4.60;;
73599;SDS011;61877;48.246;9.220;2023-05-07T05:45:51;9.25;;;4.60;;
73599;SDS011;61877;48.246;9.220;2023-05-07T05:48:34;9.30;;;4.90;;
73599;SDS011;61877;48.246;9.220;2023-05-07T05:51:01;9.20;;;5.10;;
73599;SDS011;61877;48.246;9.220;2023-05-07T05:53:26;10.13;;;5.13;;
73599;SDS011;61877;48.246;9.220;2023-05-07T05:55:52;8.43;;;4.83;;
73599;SDS011;61877;48.246;9.220;2023-05-07T05:58:20;10.20;;;5.33;;
73599;SDS011;61877;48.246;9.220;2023-05-07T06:00:45;10.68;;;5.70;;
73599;SDS011;61877;48.246;9.220;2023-05-07T06:03:11;9.40;;;5.23;;
73599;SDS011;61877;48.246;9.220;2023-05-07T06:05:37;9.20;;;4.77;;
73599;SDS011;61877;48.246;9.220;2023-05-07T06:08:04;9.23;;;5.35;;
73599;SDS011;61877;48.246;9.220;2023-05-07T06:10:30;9.15;;;5.07;;
73599;SDS011;61877;48.246;9.220;2023-05-07T06:13:00;10.00;;;5.50;;
73599;SDS011;61877;48.246;9.220;2023-05-07T06:15:26;9.10;;;4.50;;
73599;SDS011;61877;48.246;9.220;2023-05-07T06:17:54;10.68;;;4.65;;
73599;SDS011;61877;48.246;9.220;2023-05-07T06:20:19;9.13;;;4.40;;
73599;SDS011;61877;48.246;9.220;2023-05-07T06:22:45;10.32;;;4.93;;
73599;SDS011;61877;48.246;9.220;2023-05-07T06:27:58;9.63;;;4.80;;
73599;SDS011;61877;48.246;9.220;2023-05-07T06:30:23;9.27;;;4.80;;
73599;SDS011;61877;48.246;9.220;2023-05-07T06:32:49;9.70;;;5.03;;
73599;SDS011;61877;48.246;9.220;2023-05-07T06:35:14;10.97;;;5.00;;
73599;SDS011;61877;48.246;9.220;2023-05-07T06:37:40;9.20;;;5.13;;
73599;SDS011;61877;48.246;9.220;2023-05-07T06:40:10;10.27;;;5.20;;
73599;SDS011;61877;48.246;9.220;2023-05-07T06:42:58;11.25;;;5.00;;
73599;SDS011;61877;48.246;9.220;2023-05-07T06:45:42;9.20;;;5.00;;
73599;SDS011;61877;48.246;9.220;2023-05-07T07:07:22;8.68;;;4.50;;
73599;SDS011;61877;48.246;9.220;2023-05-07T07:18:28;9.90;;;4.55;;
73599;SDS011;61877;48.246;9.220;2023-05-07T07:20:53;9.40;;;4.63;;
73599;SDS011;61877;48.246;9.220;2023-05-07T07:26:23;8.40;;;4.50;;
73599;SDS011;61877;48.246;9.220;2023-05-07T07:31:51;8.20;;;4.18;;
73599;SDS011;61877;48.246;9.220;2023-05-07T07:37:20;9.45;;;4.40;;
73599;SDS011;61877;48.246;9.220;2023-05-07T07:39:51;8.97;;;4.80;;
73599;SDS011;61877;48.246;9.220;2023-05-07T07:45:26;9.43;;;4.47;;
73599;SDS011;61877;48.246;9.220;2023-05-07T07:50:41;7.90;;;4.20;;
73599;SDS011;61877;48.246;9.220;2023-05-07T07:53:07;7.73;;;3.97;;
73599;SDS011;61877;48.246;9.220;2023-05-07T07:55:34;8.00;;;4.17;;
73599;SDS011;61877;48.246;9.220;2023-05-07T07:58:07;8.77;;;3.85;;
73599;SDS011;61877;48.246;9.220;2023-05-07T08:00:48;8.10;;;3.97;;
73599;SDS011;61877;48.246;9.220;2023-05-07T08:03:16;7.05;;;3.42;;
73599;SDS011;61877;48.246;9.220;2023-05-07T08:08:45;7.40;;;3.40;;
73599;SDS011;61877;48.246;9.220;2023-05-07T08:11:10;7.00;;;3.50;;
73599;SDS011;61877;48.246;9.220;2023-05-07T08:13:37;7.90;;;3.40;;
73599;SDS011;61877;48.246;9.220;2023-05-07T08:16:05;6.68;;;3.58;;
73599;SDS011;61877;48.246;9.220;2023-05-07T08:18:39;8.18;;;3.50;;
73599;SDS011;61877;48.246;9.220;2023-05-07T08:21:32;7.93;;;3.40;;
73599;SDS011;61877;48.246;9.220;2023-05-07T08:26:57;7.70;;;3.08;;
73599;SDS011;61877;48.246;9.220;2023-05-07T08:29:23;6.70;;;3.00;;
73599;SDS011;61877;48.246;9.220;2023-05-07T08:31:54;9.07;;;4.18;;
73599;SDS011;61877;48.246;9.220;2023-05-07T08:34:21;7.70;;;3.10;;
73599;SDS011;61877;48.246;9.220;2023-05-07T08:36:46;6.90;;;2.90;;
73599;SDS011;61877;48.246;9.220;2023-05-07T08:39:12;6.68;;;2.85;;
73599;SDS011;61877;48.246;9.220;2023-05-07T08:41:37;8.10;;;2.90;;
73599;SDS011;61877;48.246;9.220;2023-05-07T08:44:11;6.90;;;2.90;;
73599;SDS011;61877;48.246;9.220;2023-05-07T08:46:38;6.30;;;2.57;;
73599;SDS011;61877;48.246;9.220;2023-05-07T08:49:42;7.32;;;2.55;;
73599;SDS011;61877;48.246;9.220;2023-05-07T08:55:32;6.45;;;2.40;;
73599;SDS011;61877;48.246;9.220;2023-05-07T08:57:57;7.78;;;2.60;;
73599;SDS011;61877;48.246;9.220;2023-05-07T09:00:23;5.90;;;2.53;;
73599;SDS011;61877;48.246;9.220;2023-05-07T09:02:48;6.17;;;2.50;;
73599;SDS011;61877;48.246;9.220;2023-05-07T09:05:15;7.00;;;2.30;;
73599;SDS011;61877;48.246;9.220;2023-05-07T09:07:41;6.25;;;2.78;;
73599;SDS011;61877;48.246;9.220;2023-05-07T09:10:07;5.77;;;2.40;;
73599;SDS011;61877;48.246;9.220;2023-05-07T09:12:33;6.10;;;2.50;;
73599;SDS011;61877;48.246;9.220;2023-05-07T09:14:59;6.05;;;2.50;;
73599;SDS011;61877;48.246;9.220;2023-05-07T09:17:25;6.17;;;2.70;;
73599;SDS011;61877;48.246;9.220;2023-05-07T09:19:50;6.00;;;2.47;;
73599;SDS011;61877;48.246;9.220;2023-05-07T09:22:17;6.07;;;2.70;;
73599;SDS011;61877;48.246;9.220;2023-05-07T09:24:46;6.57;;;2.53;;
73599;SDS011;61877;48.246;9.220;2023-05-07T09:27:12;7.30;;;2.90;;
73599;SDS011;61877;48.246;9.220;2023-05-07T09:29:38;6.85;;;2.67;;
73599;SDS011;61877;48.246;9.220;2023-05-07T09:32:05;6.00;;;2.60;;
73599;SDS011;61877;48.246;9.220;2023-05-07T09:34:32;6.38;;;2.50;;
73599;SDS011;61877;48.246;9.220;2023-05-07T09:36:58;6.17;;;2.37;;
73599;SDS011;61877;48.246;9.220;2023-05-07T09:39:26;6.38;;;2.72;;
73599;SDS011;61877;48.246;9.220;2023-05-07T09:42:13;5.60;;;2.40;;
73599;SDS011;61877;48.246;9.220;2023-05-07T09:44:39;6.63;;;2.67;;
73599;SDS011;61877;48.246;9.220;2023-05-07T09:47:06;6.00;;;2.60;;
73599;SDS011;61877;48.246;9.220;2023-05-07T09:49:33;6.57;;;2.70;;
73599;SDS011;61877;48.246;9.220;2023-05-07T09:52:00;6.50;;;2.53;;
73599;SDS011;61877;48.246;9.220;2023-05-07T09:54:31;6.88;;;2.80;;
73599;SDS011;61877;48.246;9.220;2023-05-07T09:56:58;6.63;;;2.70;;
73599;SDS011;61877;48.246;9.220;2023-05-07T09:59:24;6.93;;;2.67;;
73599;SDS011;61877;48.246;9.220;2023-05-07T10:01:50;6.10;;;2.80;;
73599;SDS011;61877;48.246;9.220;2023-05-07T10:04:25;8.02;;;2.97;;
73599;SDS011;61877;48.246;9.220;2023-05-07T10:06:57;7.13;;;2.90;;
73599;SDS011;61877;48.246;9.220;2023-05-07T10:09:29;6.53;;;3.00;;
73599;SDS011;61877;48.246;9.220;2023-05-07T10:11:59;6.10;;;2.90;;
73599;SDS011;61877;48.246;9.220;2023-05-07T10:14:25;6.20;;;2.97;;
73599;SDS011;61877;48.246;9.220;2023-05-07T10:16:52;7.85;;;3.40;;
73599;SDS011;61877;48.246;9.220;2023-05-07T10:19:19;6.55;;;3.17;;
73599;SDS011;61877;48.246;9.220;2023-05-07T10:21:48;7.43;;;3.17;;
73599;SDS011;61877;48.246;9.220;2023-05-07T10:24:24;6.57;;;2.90;;
73599;SDS011;61877;48.246;9.220;2023-05-07T10:26:57;6.70;;;3.17;;
73599;SDS011;61877;48.246;9.220;2023-05-07T10:29:29;6.68;;;3.25;;
73599;SDS011;61877;48.246;9.220;2023-05-07T10:32:03;6.55;;;3.30;;
73599;SDS011;61877;48.246;9.220;2023-05-07T10:34:45;6.70;;;3.30;;
73599;SDS011;61877;48.246;9.220;2023-05-07T10:37:14;6.78;;;3.15;;
73599;SDS011;61877;48.246;9.220;2023-05-07T10:39:41;7.47;;;3.90;;
73599;SDS011;61877;48.246;9.220;2023-05-07T10:42:09;7.70;;;3.60;;
73599;SDS011;61877;48.246;9.220;2023-05-07T10:44:34;6.70;;;3.50;;
73599;SDS011;61877;48.246;9.220;2023-05-07T10:47:07;7.40;;;3.63;;
73599;SDS011;61877;48.246;9.220;2023-05-07T10:49:34;9.60;;;4.00;;
73599;SDS011;61877;48.246;9.220;2023-05-07T10:55:20;9.35;;;4.15;;
73599;SDS011;61877;48.246;9.220;2023-05-07T10:57:51;7.63;;;3.75;;
73599;SDS011;61877;48.246;9.220;2023-05-07T11:03:10;7.82;;;4.00;;
73599;SDS011;61877;48.246;9.220;2023-05-07T11:05:37;7.57;;;3.95;;
73599;SDS011;61877;48.246;9.220;2023-05-07T11:11:12;7.88;;;3.58;;
73599;SDS011;61877;48.246;9.220;2023-05-07T11:13:42;7.33;;;3.90;;
73599;SDS011;61877;48.246;9.220;2023-05-07T11:16:19;7.53;;;3.88;;
73599;SDS011;61877;48.246;9.220;2023-05-07T11:18:49;7.25;;;3.47;;
73599;SDS011;61877;48.246;9.220;2023-05-07T11:21:33;7.45;;;3.70;;
73599;SDS011;61877;48.246;9.220;2023-05-07T11:24:03;7.30;;;3.73;;
73599;SDS011;61877;48.246;9.220;2023-05-07T11:26:42;7.20;;;3.58;;
73599;SDS011;61877;48.246;9.220;2023-05-07T11:29:12;7.68;;;3.60;;
73599;SDS011;61877;48.246;9.220;2023-05-07T11:34:33;7.53;;;3.67;;
73599;SDS011;61877;48.246;9.220;2023-05-07T11:40:08;7.10;;;3.50;;
73599;SDS011;61877;48.246;9.220;2023-05-07T11:45:58;9.88;;;3.97;;
73599;SDS011;61877;48.246;9.220;2023-05-07T11:48:30;7.88;;;3.95;;
73599;SDS011;61877;48.246;9.220;2023-05-07T11:51:00;7.83;;;3.60;;
73599;SDS011;61877;48.246;9.220;2023-05-07T11:53:27;8.45;;;3.90;;
73599;SDS011;61877;48.246;9.220;2023-05-07T11:56:00;8.30;;;3.97;;
73599;SDS011;61877;48.246;9.220;2023-05-07T11:58:30;8.18;;;3.80;;
73599;SDS011;61877;48.246;9.220;2023-05-07T12:00:57;8.20;;;3.70;;
73599;SDS011;61877;48.246;9.220;2023-05-07T12:03:26;8.02;;;3.75;;
73599;SDS011;61877;48.246;9.220;2023-05-07T12:05:51;7.63;;;3.37;;
73599;SDS011;61877;48.246;9.220;2023-05-07T12:08:30;7.50;;;3.65;;
73599;SDS011;61877;48.246;9.220;2023-05-07T12:10:56;8.60;;;3.58;;
73599;SDS011;61877;48.246;9.220;2023-05-07T12:16:28;8.77;;;3.78;;
73599;SDS011;61877;48.246;9.220;2023-05-07T12:18:56;6.90;;;3.33;;
73599;SDS011;61877;48.246;9.220;2023-05-07T12:21:27;6.93;;;3.40;;
73599;SDS011;61877;48.246;9.220;2023-05-07T12:24:44;7.60;;;3.60;;
73599;SDS011;61877;48.246;9.220;2023-05-07T12:30:02;7.90;;;3.17;;
73599;SDS011;61877;48.246;9.220;2023-05-07T12:32:29;8.60;;;3.35;;
73599;SDS011;61877;48.246;9.220;2023-05-07T12:34:54;7.15;;;3.10;;
73599;SDS011;61877;48.246;9.220;2023-05-07T12:37:22;8.40;;;3.10;;
73599;SDS011;61877;48.246;9.220;2023-05-07T12:39:49;7.70;;;3.38;;
73599;SDS011;61877;48.246;9.220;2023-05-07T12:42:28;7.13;;;3.33;;
73599;SDS011;61877;48.246;9.220;2023-05-07T12:44:58;7.07;;;3.20;;
73599;SDS011;61877;48.246;9.220;2023-05-07T12:47:24;6.50;;;3.25;;
73599;SDS011;61877;48.246;9.220;2023-05-07T12:49:51;6.60;;;3.10;;
73599;SDS011;61877;48.246;9.220;2023-05-07T12:52:19;6.97;;;3.30;;
73599;SDS011;61877;48.246;9.220;2023-05-07T12:54:48;7.05;;;3.42;;
73599;SDS011;61877;48.246;9.220;2023-05-07T12:57:13;8.02;;;3.60;;
73599;SDS011;61877;48.246;9.220;2023-05-07T12:59:40;6.70;;;3.23;;
73599;SDS011;61877;48.246;9.220;2023-05-07T13:02:07;7.20;;;3.10;;
73599;SDS011;61877;48.246;9.220;2023-05-07T13:04:33;6.90;;;3.20;;
73599;SDS011;61877;48.246;9.220;2023-05-07T13:07:02;7.20;;;3.17;;
73599;SDS011;61877;48.246;9.220;2023-05-07T13:12:34;7.47;;;3.95;;
73599;SDS011;61877;48.246;9.220;2023-05-07T13:15:03;7.60;;;3.30;;
73599;SDS011;61877;48.246;9.220;2023-05-07T13:17:35;6.82;;;3.17;;
73599;SDS011;61877;48.246;9.220;2023-05-07T13:35:16;9.20;;;4.43;;
73599;SDS011;61877;48.246;9.220;2023-05-07T13:37:42;8.43;;;4.03;;
73599;SDS011;61877;48.246;9.220;2023-05-07T13:40:11;9.33;;;3.80;;
73599;SDS011;61877;48.246;9.220;2023-05-07T13:42:36;8.50;;;3.70;;
73599;SDS011;61877;48.246;9.220;2023-05-07T13:45:02;9.50;;;4.40;;
73599;SDS011;61877;48.246;9.220;2023-05-07T13:47:29;8.70;;;3.80;;
73599;SDS011;61877;48.246;9.220;2023-05-07T13:49:56;8.18;;;3.53;;
73599;SDS011;61877;48.246;9.220;2023-05-07T13:52:22;8.35;;;3.42;;
73599;SDS011;61877;48.246;9.220;2023-05-07T13:54:47;9.57;;;3.80;;
73599;SDS011;61877;48.246;9.220;2023-05-07T13:57:14;7.97;;;3.33;;
73599;SDS011;61877;48.246;9.220;2023-05-07T13:59:41;7.80;;;3.10;;
73599;SDS011;61877;48.246;9.220;2023-05-07T14:02:08;11.10;;;3.75;;
73599;SDS011;61877;48.246;9.220;2023-05-07T14:07:01;10.65;;;3.60;;
73599;SDS011;61877;48.246;9.220;2023-05-07T14:09:27;11.50;;;4.47;;
73599;SDS011;61877;48.246;9.220;2023-05-07T14:11:52;9.80;;;3.80;;
73599;SDS011;61877;48.246;9.220;2023-05-07T14:14:19;9.73;;;4.05;;
73599;SDS011;61877;48.246;9.220;2023-05-07T14:16:45;9.67;;;4.00;;
73599;SDS011;61877;48.246;9.220;2023-05-07T14:19:10;8.90;;;3.75;;
73599;SDS011;61877;48.246;9.220;2023-05-07T14:21:35;9.07;;;3.50;;
73599;SDS011;61877;48.246;9.220;2023-05-07T14:24:01;8.83;;;3.27;;
73599;SDS011;61877;48.246;9.220;2023-05-07T14:26:26;8.10;;;3.07;;
73599;SDS011;61877;48.246;9.220;2023-05-07T14:28:52;8.60;;;3.05;;
73599;SDS011;61877;48.246;9.220;2023-05-07T14:31:19;8.30;;;3.60;;
73599;SDS011;61877;48.246;9.220;2023-05-07T14:33:44;9.38;;;4.15;;
73599;SDS011;61877;48.246;9.220;2023-05-07T14:36:09;10.60;;;4.27;;
73599;SDS011;61877;48.246;9.220;2023-05-07T14:38:35;9.33;;;4.00;;
73599;SDS011;61877;48.246;9.220;2023-05-07T14:41:00;11.05;;;3.90;;
73599;SDS011;61877;48.246;9.220;2023-05-07T14:43:26;8.40;;;3.40;;
73599;SDS011;61877;48.246;9.220;2023-05-07T14:45:51;7.80;;;3.23;;
73599;SDS011;61877;48.246;9.220;2023-05-07T14:48:18;8.82;;;3.30;;
73599;SDS011;61877;48.246;9.220;2023-05-07T14:50:46;8.10;;;3.20;;
73599;SDS011;61877;48.246;9.220;2023-05-07T14:53:11;9.17;;;4.00;;
73599;SDS011;61877;48.246;9.220;2023-05-07T14:55:37;7.63;;;2.87;;
73599;SDS011;61877;48.246;9.220;2023-05-07T14:58:02;6.53;;;2.90;;
73599;SDS011;61877;48.246;9.220;2023-05-07T15:00:27;8.40;;;2.90;;
73599;SDS011;61877;48.246;9.220;2023-05-07T15:02:53;6.70;;;2.40;;
73599;SDS011;61877;48.246;9.220;2023-05-07T15:05:23;6.30;;;2.60;;
73599;SDS011;61877;48.246;9.220;2023-05-07T15:07:48;6.63;;;2.80;;
73599;SDS011;61877;48.246;9.220;2023-05-07T15:10:13;7.90;;;3.20;;
73599;SDS011;61877;48.246;9.220;2023-05-07T15:12:39;7.60;;;2.77;;
73599;SDS011;61877;48.246;9.220;2023-05-07T15:15:05;8.70;;;3.37;;
73599;SDS011;61877;48.246;9.220;2023-05-07T15:17:31;7.53;;;3.03;;
73599;SDS011;61877;48.246;9.220;2023-05-07T15:19:56;9.03;;;3.30;;
73599;SDS011;61877;48.246;9.220;2023-05-07T15:22:23;7.72;;;3.20;;
73599;SDS011;61877;48.246;9.220;2023-05-07T15:24:49;7.30;;;2.60;;
73599;SDS011;61877;48.246;9.220;2023-05-07T15:27:14;8.85;;;2.83;;
73599;SDS011;61877;48.246;9.220;2023-05-07T15:29:40;7.63;;;2.77;;
73599;SDS011;61877;48.246;9.220;2023-05-07T15:32:05;8.00;;;2.97;;
73599;SDS011;61877;48.246;9.220;2023-05-07T15:34:30;7.57;;;2.70;;
73599;SDS011;61877;48.246;9.220;2023-05-07T15:36:56;6.87;;;2.93;;
73599;SDS011;61877;48.246;9.220;2023-05-07T15:39:22;6.70;;;2.83;;
73599;SDS011;61877;48.246;9.220;2023-05-07T15:41:48;6.50;;;2.38;;
73599;SDS011;61877;48.246;9.220;2023-05-07T15:44:14;7.57;;;3.00;;
73599;SDS011;61877;48.246;9.220;2023-05-07T15:46:39;6.13;;;2.60;;
73599;SDS011;61877;48.246;9.220;2023-05-07T15:49:04;5.80;;;2.33;;
73599;SDS011;61877;48.246;9.220;2023-05-07T15:51:30;5.73;;;2.30;;
73599;SDS011;61877;48.246;9.220;2023-05-07T15:53:55;6.30;;;2.30;;
73599;SDS011;61877;48.246;9.220;2023-05-07T15:56:22;5.90;;;2.70;;
73599;SDS011;61877;48.246;9.220;2023-05-07T15:58:47;6.53;;;2.38;;
73599;SDS011;61877;48.246;9.220;2023-05-07T16:01:13;5.77;;;2.20;;
73599;SDS011;61877;48.246;9.220;2023-05-07T17:22:28;7.70;;;3.97;;
73599;SDS011;61877;48.246;9.220;2023-05-07T17:24:54;8.57;;;3.40;;
73599;SDS011;61877;48.246;9.220;2023-05-07T17:27:23;7.35;;;3.10;;
73599;SDS011;61877;48.246;9.220;2023-05-07T17:29:50;7.80;;;3.10;;
73599;SDS011;61877;48.246;9.220;2023-05-07T17:32:16;6.70;;;3.13;;
73599;SDS011;61877;48.246;9.220;2023-05-07T17:34:42;7.82;;;3.60;;
73599;SDS011;61877;48.246;9.220;2023-05-07T17:37:14;7.00;;;3.42;;
73599;SDS011;61877;48.246;9.220;2023-05-07T17:39:42;7.63;;;3.58;;
73599;SDS011;61877;48.246;9.220;2023-05-07T17:42:08;7.40;;;3.80;;
73599;SDS011;61877;48.246;9.220;2023-05-07T17:44:34;7.63;;;3.75;;
73599;SDS011;61877;48.246;9.220;2023-05-07T17:46:59;8.68;;;3.72;;
73599;SDS011;61877;48.246;9.220;2023-05-07T17:49:25;8.10;;;3.50;;